createdAt,value
2018-06-29T00:00:22.778Z,8.03
2018-06-29T00:02:50.904Z,7.57
2018-06-29T00:05:19.057Z,7.00
2018-06-29T00:07:47.219Z,7.13
2018-06-29T00:10:26.214Z,8.37
2018-06-29T00:12:54.783Z,7.93
2018-06-29T00:15:23.446Z,7.50
2018-06-29T00:17:51.725Z,7.77
2018-06-29T00:20:19.880Z,8.50
2018-06-29T00:22:48.015Z,8.00
2018-06-29T00:25:16.229Z,7.60
2018-06-29T00:27:44.365Z,8.13
2018-06-29T00:30:12.488Z,7.80
2018-06-29T00:32:40.630Z,7.97
2018-06-29T00:35:08.740Z,7.90
2018-06-29T00:37:36.884Z,8.10
2018-06-29T00:40:05.005Z,7.60
2018-06-29T00:42:33.201Z,8.30
2018-06-29T00:45:01.257Z,8.20
2018-06-29T00:47:29.381Z,8.43
2018-06-29T00:49:57.521Z,7.67
2018-06-29T00:52:25.644Z,7.63
2018-06-29T00:54:53.774Z,7.77
2018-06-29T00:57:21.893Z,7.30
2018-06-29T00:59:50.018Z,6.93
2018-06-29T01:02:18.171Z,7.30
2018-06-29T01:04:46.326Z,8.27
2018-06-29T01:07:14.454Z,7.23
2018-06-29T01:09:42.629Z,8.03
2018-06-29T01:12:10.766Z,7.40
2018-06-29T01:14:38.946Z,8.30
2018-06-29T01:17:07.102Z,8.87
2018-06-29T01:19:35.286Z,7.90
2018-06-29T01:22:03.464Z,8.33
2018-06-29T01:24:31.622Z,7.23
2018-06-29T01:26:59.760Z,7.03
2018-06-29T01:29:27.916Z,8.70
2018-06-29T01:31:56.076Z,7.73
2018-06-29T01:34:24.228Z,8.13
2018-06-29T01:36:52.401Z,7.93
2018-06-29T01:39:20.563Z,8.63
2018-06-29T01:41:48.708Z,8.10
2018-06-29T01:44:16.863Z,8.00
2018-06-29T01:46:45.022Z,8.40
2018-06-29T01:49:13.167Z,8.03
2018-06-29T01:51:41.328Z,8.07
2018-06-29T01:54:09.545Z,8.30
2018-06-29T01:56:37.693Z,7.63
2018-06-29T01:59:05.817Z,7.03
2018-06-29T02:01:33.969Z,8.40
2018-06-29T02:04:02.102Z,7.93
2018-06-29T02:06:30.253Z,9.00
2018-06-29T02:08:58.415Z,7.83
2018-06-29T02:11:26.578Z,8.27
2018-06-29T02:13:54.465Z,7.90
2018-06-29T02:16:22.605Z,7.90
2018-06-29T02:18:50.770Z,7.90
2018-06-29T02:21:18.913Z,8.03
2018-06-29T02:23:47.064Z,7.97
2018-06-29T02:26:15.233Z,7.70
2018-06-29T02:28:43.377Z,8.20
2018-06-29T02:31:11.539Z,7.90
2018-06-29T02:33:39.665Z,7.63
2018-06-29T02:36:07.811Z,7.83
2018-06-29T02:38:35.933Z,8.20
2018-06-29T02:41:04.083Z,7.87
2018-06-29T02:43:32.210Z,6.90
2018-06-29T02:46:00.345Z,6.87
2018-06-29T02:48:28.462Z,7.53
2018-06-29T02:50:56.639Z,7.10
2018-06-29T02:53:24.854Z,7.93
2018-06-29T02:55:53.005Z,8.07
2018-06-29T02:58:21.158Z,8.97
2018-06-29T03:00:49.288Z,7.83
2018-06-29T03:03:17.400Z,8.77
2018-06-29T03:05:45.553Z,8.33
2018-06-29T03:08:13.667Z,8.23
2018-06-29T03:10:41.802Z,8.20
2018-06-29T03:13:09.924Z,8.30
2018-06-29T03:15:38.046Z,8.03
2018-06-29T03:18:06.202Z,8.97
2018-06-29T03:20:34.326Z,8.90
2018-06-29T03:23:02.479Z,8.17
2018-06-29T03:25:30.613Z,8.73
2018-06-29T03:27:58.761Z,8.00
2018-06-29T03:30:26.893Z,7.83
2018-06-29T03:32:54.843Z,7.93
2018-06-29T03:35:22.932Z,8.47
2018-06-29T03:37:51.076Z,8.80
2018-06-29T03:40:19.273Z,8.47
2018-06-29T03:42:47.352Z,7.73
2018-06-29T03:45:15.240Z,7.90
2018-06-29T03:47:43.389Z,8.87
2018-06-29T03:50:11.305Z,8.40
2018-06-29T03:52:39.457Z,9.37
2018-06-29T03:55:07.606Z,9.77
2018-06-29T03:57:35.765Z,9.60
2018-06-29T04:00:03.925Z,9.53
2018-06-29T04:02:32.105Z,9.80
2018-06-29T04:05:00.263Z,10.43
2018-06-29T04:07:28.429Z,10.30
2018-06-29T04:09:56.584Z,10.10
2018-06-29T04:12:24.746Z,9.30
2018-06-29T04:14:52.885Z,9.23
2018-06-29T04:17:21.046Z,9.43
2018-06-29T04:19:49.169Z,9.47
2018-06-29T04:22:17.301Z,9.27
2018-06-29T04:24:45.216Z,9.87
2018-06-29T04:27:13.377Z,10.17
2018-06-29T04:29:41.508Z,9.57
2018-06-29T04:32:09.637Z,10.00
2018-06-29T04:34:37.785Z,9.53
2018-06-29T04:37:05.965Z,9.63
2018-06-29T04:39:34.118Z,8.93
2018-06-29T04:42:02.246Z,10.20
2018-06-29T04:44:30.394Z,8.83
2018-06-29T04:46:58.529Z,9.60
2018-06-29T04:49:26.711Z,9.60
2018-06-29T04:51:54.861Z,8.70
2018-06-29T04:54:23.013Z,9.63
2018-06-29T04:56:51.136Z,9.63
2018-06-29T04:59:19.282Z,9.93
2018-06-29T05:01:47.425Z,9.87
2018-06-29T05:04:15.605Z,10.10
2018-06-29T05:06:43.781Z,10.17
2018-06-29T05:09:11.915Z,9.10
2018-06-29T05:11:40.042Z,9.10
2018-06-29T05:14:08.241Z,9.07
2018-06-29T05:16:36.405Z,8.83
2018-06-29T05:19:04.695Z,9.70
2018-06-29T05:21:32.854Z,7.90
2018-06-29T05:24:01.001Z,9.10
2018-06-29T05:26:29.258Z,8.50
2018-06-29T05:28:57.405Z,9.80
2018-06-29T05:31:25.608Z,7.80
2018-06-29T05:33:53.773Z,8.60
2018-06-29T05:36:21.930Z,8.50
2018-06-29T05:38:50.094Z,8.10
2018-06-29T05:41:18.241Z,9.73
2018-06-29T05:43:46.140Z,9.43
2018-06-29T05:46:14.322Z,9.83
2018-06-29T05:48:42.442Z,9.60
2018-06-29T05:51:10.598Z,9.90
2018-06-29T05:53:38.772Z,9.30
2018-06-29T05:56:06.966Z,10.60
2018-06-29T05:58:35.107Z,10.47
2018-06-29T06:01:03.692Z,9.70
2018-06-29T06:03:31.846Z,11.83
2018-06-29T06:05:59.994Z,10.97
2018-06-29T06:08:28.214Z,10.17
2018-06-29T06:10:56.394Z,10.57
2018-06-29T06:13:24.612Z,11.50
2018-06-29T06:15:52.717Z,11.10
2018-06-29T06:18:20.890Z,12.10
2018-06-29T06:20:49.061Z,11.60
2018-06-29T06:23:20.339Z,11.27
2018-06-29T06:25:48.557Z,10.43
2018-06-29T06:28:17.406Z,9.90
2018-06-29T06:30:45.584Z,9.90
2018-06-29T06:33:13.808Z,9.03
2018-06-29T06:35:42.073Z,9.07
2018-06-29T06:38:10.238Z,8.30
2018-06-29T06:40:38.406Z,9.50
2018-06-29T06:43:06.622Z,8.70
2018-06-29T06:45:34.783Z,9.53
2018-06-29T06:48:03.910Z,9.93
2018-06-29T06:50:32.141Z,9.37
2018-06-29T06:53:00.325Z,9.73
2018-06-29T06:55:28.506Z,10.00
2018-06-29T06:57:56.706Z,9.80
2018-06-29T07:00:24.876Z,9.40
2018-06-29T07:02:53.035Z,10.10
2018-06-29T07:05:21.207Z,9.30
2018-06-29T07:07:49.377Z,8.40
2018-06-29T07:10:17.567Z,9.23
2018-06-29T07:12:45.848Z,8.57
2018-06-29T07:15:13.988Z,8.20
2018-06-29T07:17:43.084Z,9.13
2018-06-29T07:20:11.337Z,8.97
2018-06-29T07:22:39.485Z,10.00
2018-06-29T07:25:07.618Z,9.60
2018-06-29T07:27:37.433Z,10.00
2018-06-29T07:30:07.014Z,10.20
2018-06-29T07:32:35.257Z,10.47
2018-06-29T07:35:03.458Z,9.70
2018-06-29T07:37:31.656Z,11.50
2018-06-29T07:40:00.470Z,10.20
2018-06-29T07:42:28.670Z,11.53
2018-06-29T07:44:56.817Z,11.10
2018-06-29T07:47:24.981Z,10.33
2018-06-29T07:49:53.126Z,10.40
2018-06-29T07:52:21.290Z,10.47
2018-06-29T07:54:49.455Z,9.10
2018-06-29T07:57:17.633Z,9.40
2018-06-29T07:59:45.806Z,9.90
2018-06-29T08:02:14.017Z,8.90
2018-06-29T08:04:42.180Z,8.63
2018-06-29T08:07:10.354Z,8.00
2018-06-29T08:09:38.512Z,8.93
2018-06-29T08:12:06.671Z,9.87
2018-06-29T08:14:34.848Z,8.57
2018-06-29T08:17:03.005Z,9.00
2018-06-29T08:19:31.148Z,8.70
2018-06-29T08:22:04.292Z,8.20
2018-06-29T08:24:32.666Z,9.70
2018-06-29T08:27:00.834Z,8.80
2018-06-29T08:29:28.962Z,8.87
2018-06-29T08:31:57.109Z,9.27
2018-06-29T08:34:25.245Z,9.17
2018-06-29T08:36:53.374Z,9.33
2018-06-29T08:39:21.274Z,9.30
2018-06-29T08:41:49.450Z,9.07
2018-06-29T08:44:17.611Z,10.40
2018-06-29T08:46:45.748Z,9.20
2018-06-29T08:49:13.882Z,9.00
2018-06-29T08:51:42.033Z,9.40
2018-06-29T08:54:10.169Z,9.10
2018-06-29T08:56:38.301Z,8.93
2018-06-29T08:59:06.467Z,9.37
2018-06-29T09:01:34.601Z,8.90
2018-06-29T09:04:02.731Z,8.07
2018-06-29T09:06:30.930Z,9.03
2018-06-29T09:08:59.111Z,9.57
2018-06-29T09:11:27.265Z,8.47
2018-06-29T09:13:55.437Z,8.87
2018-06-29T09:16:23.603Z,8.93
2018-06-29T09:18:51.794Z,8.97
2018-06-29T09:21:19.957Z,8.40
2018-06-29T09:23:48.141Z,8.00
2018-06-29T09:26:16.317Z,7.37
2018-06-29T09:28:44.532Z,7.97
2018-06-29T09:31:12.693Z,8.70
2018-06-29T09:33:40.878Z,8.20
2018-06-29T09:36:09.004Z,8.40
2018-06-29T09:38:37.162Z,7.90
2018-06-29T09:41:05.325Z,8.47
2018-06-29T09:43:33.513Z,7.50
2018-06-29T09:46:01.664Z,7.13
2018-06-29T09:48:29.847Z,7.90
2018-06-29T09:50:58.017Z,8.50
2018-06-29T09:53:26.195Z,8.20
2018-06-29T09:55:54.333Z,7.93
2018-06-29T09:58:22.506Z,8.00
2018-06-29T10:00:55.411Z,8.40
2018-06-29T10:03:18.852Z,7.93
2018-06-29T10:05:46.994Z,6.90
2018-06-29T10:08:15.144Z,7.20
2018-06-29T10:10:43.397Z,6.30
2018-06-29T10:13:11.587Z,7.03
2018-06-29T10:15:39.737Z,6.97
2018-06-29T10:18:07.913Z,6.67
2018-06-29T10:20:36.342Z,6.43
2018-06-29T10:23:04.504Z,7.20
2018-06-29T10:25:32.684Z,7.70
2018-06-29T10:28:00.965Z,7.20
2018-06-29T10:30:29.301Z,7.00
2018-06-29T10:32:57.493Z,7.50
2018-06-29T10:35:25.898Z,7.10
2018-06-29T10:37:54.381Z,7.40
2018-06-29T10:40:23.289Z,6.83
2018-06-29T10:42:51.469Z,7.00
2018-06-29T10:45:19.702Z,6.60
2018-06-29T10:47:47.865Z,7.00
2018-06-29T10:50:16.028Z,6.90
2018-06-29T10:52:44.208Z,6.33
2018-06-29T10:55:12.350Z,6.27
2018-06-29T10:57:40.488Z,7.60
2018-06-29T11:00:08.680Z,8.03
2018-06-29T11:02:37.190Z,6.60
2018-06-29T11:05:05.434Z,6.70
2018-06-29T11:07:33.594Z,6.43
2018-06-29T11:10:01.782Z,5.80
2018-06-29T11:12:29.950Z,6.77
2018-06-29T11:14:58.114Z,7.67
2018-06-29T11:17:26.361Z,6.60
2018-06-29T11:19:54.509Z,6.23
2018-06-29T11:22:22.667Z,6.17
2018-06-29T11:24:50.805Z,5.97
2018-06-29T11:27:19.355Z,6.73
2018-06-29T11:29:47.509Z,6.67
2018-06-29T11:32:15.688Z,6.57
2018-06-29T11:34:43.830Z,5.60
2018-06-29T11:37:12.445Z,6.00
2018-06-29T11:39:40.585Z,6.30
2018-06-29T11:42:08.758Z,6.00
2018-06-29T11:44:36.921Z,6.00
2018-06-29T11:47:05.097Z,6.10
2018-06-29T11:49:33.549Z,6.60
2018-06-29T11:52:02.120Z,7.10
2018-06-29T11:54:30.566Z,6.90
2018-06-29T11:56:59.028Z,5.67
2018-06-29T11:59:28.342Z,6.30
2018-06-29T12:01:57.057Z,6.43
2018-06-29T12:04:25.572Z,6.10
2018-06-29T12:06:54.107Z,5.77
2018-06-29T12:09:22.613Z,6.90
2018-06-29T12:11:51.152Z,5.03
2018-06-29T12:14:19.609Z,6.23
2018-06-29T12:16:48.025Z,5.80
2018-06-29T12:19:16.474Z,5.40
2018-06-29T12:21:44.897Z,5.67
2018-06-29T12:24:13.285Z,4.67
2018-06-29T12:26:41.397Z,4.60
2018-06-29T12:29:09.803Z,5.87
2018-06-29T12:31:38.205Z,5.20
2018-06-29T12:34:06.609Z,5.37
2018-06-29T12:36:35.011Z,5.80
2018-06-29T12:39:03.466Z,4.80
2018-06-29T12:41:31.939Z,5.13
2018-06-29T12:44:00.089Z,4.90
2018-06-29T12:46:28.243Z,5.10
2018-06-29T12:48:56.493Z,5.27
2018-06-29T12:51:25.485Z,5.07
2018-06-29T12:53:53.702Z,4.40
2018-06-29T12:56:21.866Z,4.80
2018-06-29T12:59:14.307Z,5.20
2018-06-29T13:01:42.621Z,5.43
2018-06-29T13:04:10.798Z,4.77
2018-06-29T13:06:38.978Z,5.53
2018-06-29T13:09:08.610Z,4.67
2018-06-29T13:11:36.774Z,5.57
2018-06-29T13:14:05.169Z,4.67
2018-06-29T13:16:33.615Z,5.53
2018-06-29T13:19:02.093Z,5.17
2018-06-29T13:21:30.293Z,4.90
2018-06-29T13:24:19.001Z,5.47
2018-06-29T13:26:47.209Z,5.20
2018-06-29T13:29:15.353Z,5.23
2018-06-29T13:31:43.524Z,4.90
2018-06-29T13:34:11.859Z,5.13
2018-06-29T13:36:47.181Z,5.00
2018-06-29T13:39:15.365Z,5.50
2018-06-29T13:41:43.469Z,5.67
2018-06-29T13:44:11.659Z,5.23
2018-06-29T13:46:39.982Z,5.33
2018-06-29T13:49:08.144Z,5.00
2018-06-29T13:51:36.283Z,5.60
2018-06-29T13:54:04.473Z,5.40
2018-06-29T13:56:32.613Z,4.60
2018-06-29T13:59:00.765Z,5.57
2018-06-29T14:01:29.200Z,4.43
2018-06-29T14:03:57.349Z,5.57
2018-06-29T14:06:25.490Z,5.13
2018-06-29T14:08:54.558Z,5.13
2018-06-29T14:11:22.958Z,5.20
2018-06-29T14:13:51.454Z,5.00
2018-06-29T14:16:19.753Z,5.67
2018-06-29T14:18:48.286Z,4.83
2018-06-29T14:21:16.720Z,4.63
2018-06-29T14:23:44.645Z,5.13
2018-06-29T14:26:12.905Z,5.53
2018-06-29T14:28:41.060Z,4.87
2018-06-29T14:31:09.189Z,5.10
2018-06-29T14:33:37.343Z,4.67
2018-06-29T14:36:07.126Z,4.63
2018-06-29T14:38:39.982Z,5.40
2018-06-29T14:41:11.508Z,5.07
2018-06-29T14:43:39.756Z,5.37
2018-06-29T14:46:14.239Z,5.33
2018-06-29T14:48:45.601Z,5.33
2018-06-29T14:51:16.475Z,5.73
2018-06-29T14:53:47.840Z,4.90
2018-06-29T14:56:18.573Z,5.33
2018-06-29T14:58:46.723Z,4.97
2018-06-29T15:01:14.866Z,5.63
2018-06-29T15:03:42.990Z,5.63
2018-06-29T15:06:11.197Z,5.40
2018-06-29T15:08:39.341Z,5.60
2018-06-29T15:11:10.768Z,4.77
2018-06-29T15:13:38.929Z,5.83
2018-06-29T15:16:07.096Z,5.10
2018-06-29T15:18:52.437Z,5.93
2018-06-29T15:21:30.137Z,5.70
2018-06-29T15:23:58.941Z,5.40
2018-06-29T15:26:27.237Z,5.40
2018-06-29T15:28:55.438Z,5.70
2018-06-29T15:31:23.595Z,5.47
2018-06-29T15:33:51.766Z,5.57
2018-06-29T15:36:19.919Z,5.70
2018-06-29T15:38:48.081Z,5.20
2018-06-29T15:41:16.251Z,5.50
2018-06-29T15:43:44.397Z,5.00
2018-06-29T15:46:12.609Z,5.97
2018-06-29T15:48:40.737Z,6.00
2018-06-29T15:51:08.656Z,5.47
2018-06-29T15:53:37.066Z,5.70
2018-06-29T15:56:05.328Z,5.10
2018-06-29T15:58:33.775Z,5.10
2018-06-29T16:01:02.131Z,5.30
2018-06-29T16:03:30.448Z,4.93
2018-06-29T16:05:58.741Z,5.33
2018-06-29T16:08:27.018Z,6.03
2018-06-29T16:10:55.464Z,5.53
2018-06-29T16:13:23.822Z,6.17
2018-06-29T16:15:52.153Z,6.40
2018-06-29T16:18:20.434Z,5.53
2018-06-29T16:20:48.917Z,5.30
2018-06-29T16:23:19.323Z,5.47
2018-06-29T16:25:47.530Z,5.77
2018-06-29T16:28:16.185Z,6.00
2018-06-29T16:30:44.577Z,5.53
2018-06-29T16:33:12.767Z,6.73
2018-06-29T16:35:40.900Z,6.10
2018-06-29T16:38:09.152Z,6.13
2018-06-29T16:40:37.506Z,9.30
2018-06-29T16:43:05.773Z,6.13
2018-06-29T16:45:33.975Z,5.50
2018-06-29T16:48:02.137Z,6.57
2018-06-29T16:50:30.369Z,5.40
2018-06-29T16:52:59.497Z,5.40
2018-06-29T16:55:27.659Z,5.80
2018-06-29T16:57:55.917Z,5.67
2018-06-29T17:00:24.085Z,5.60
2018-06-29T17:02:52.246Z,5.40
2018-06-29T17:05:20.374Z,5.63
2018-06-29T17:07:48.521Z,5.97
2018-06-29T17:10:16.670Z,5.87
2018-06-29T17:12:44.881Z,5.70
2018-06-29T17:15:13.250Z,5.30
2018-06-29T17:17:42.293Z,5.40
2018-06-29T17:20:10.434Z,6.83
2018-06-29T17:22:38.677Z,5.43
2018-06-29T17:25:06.861Z,6.10
2018-06-29T17:27:34.929Z,5.20
2018-06-29T17:30:03.184Z,5.70
2018-06-29T17:32:31.345Z,5.80
2018-06-29T17:35:00.101Z,5.30
2018-06-29T17:37:28.227Z,5.90
2018-06-29T17:39:56.361Z,5.73
2018-06-29T17:42:24.517Z,5.97
2018-06-29T17:44:52.770Z,6.20
2018-06-29T17:47:20.933Z,5.63
2018-06-29T17:49:49.117Z,5.87
2018-06-29T17:52:17.277Z,5.40
2018-06-29T17:54:45.230Z,6.10
2018-06-29T17:57:13.817Z,5.90
2018-06-29T17:59:42.043Z,6.27
2018-06-29T18:02:10.107Z,5.87
2018-06-29T18:04:38.568Z,6.27
2018-06-29T18:07:07.612Z,6.27
2018-06-29T18:09:35.973Z,7.40
2018-06-29T18:12:04.786Z,5.80
2018-06-29T18:14:33.154Z,6.00
2018-06-29T18:17:02.350Z,6.00
2018-06-29T18:19:30.726Z,5.63
2018-06-29T18:21:59.258Z,6.00
2018-06-29T18:24:27.647Z,5.63
2018-06-29T18:26:55.973Z,6.10
2018-06-29T18:29:24.831Z,6.33
2018-06-29T18:31:53.106Z,6.37
2018-06-29T18:34:21.275Z,6.00
2018-06-29T18:36:49.431Z,6.20
2018-06-29T18:39:17.546Z,6.03
2018-06-29T18:41:46.061Z,5.70
2018-06-29T18:44:14.818Z,6.03
2018-06-29T18:46:43.131Z,6.57
2018-06-29T18:49:11.504Z,6.23
2018-06-29T18:51:39.970Z,6.37
2018-06-29T18:54:08.816Z,6.70
2018-06-29T18:56:37.265Z,6.20
2018-06-29T18:59:05.721Z,6.37
2018-06-29T19:01:35.113Z,6.90
2018-06-29T19:04:03.822Z,6.67
2018-06-29T19:06:32.134Z,7.40
2018-06-29T19:09:00.723Z,8.20
2018-06-29T19:11:29.160Z,7.30
2018-06-29T19:13:57.278Z,7.57
2018-06-29T19:16:25.543Z,7.90
2018-06-29T19:18:54.860Z,8.20
2018-06-29T19:21:23.250Z,8.07
2018-06-29T19:23:51.573Z,6.73
2018-06-29T19:26:19.981Z,8.77
2018-06-29T19:28:48.419Z,8.43
2018-06-29T19:31:16.919Z,8.80
2018-06-29T19:33:45.592Z,7.20
2018-06-29T19:36:14.050Z,8.60
2018-06-29T19:38:42.215Z,8.50
2018-06-29T19:41:11.937Z,8.63
2018-06-29T19:43:40.389Z,9.93
2018-06-29T19:46:08.807Z,9.70
2018-06-29T19:48:37.156Z,9.13
2018-06-29T19:51:05.739Z,8.80
2018-06-29T19:53:34.081Z,8.43
2018-06-29T19:56:02.547Z,8.87
2018-06-29T19:58:30.830Z,8.40
2018-06-29T20:00:59.417Z,8.33
2018-06-29T20:03:27.556Z,8.73
2018-06-29T20:05:55.817Z,8.73
2018-06-29T20:08:24.005Z,9.17
2018-06-29T20:10:52.242Z,9.07
2018-06-29T20:13:20.398Z,8.47
2018-06-29T20:15:48.719Z,9.30
2018-06-29T20:18:16.998Z,8.60
2018-06-29T20:20:45.157Z,8.40
2018-06-29T20:23:13.301Z,9.23
2018-06-29T20:25:41.445Z,9.93
2018-06-29T20:28:10.177Z,10.07
2018-06-29T20:30:38.696Z,10.70
2018-06-29T20:33:06.922Z,10.30
2018-06-29T20:35:35.081Z,9.50
2018-06-29T20:38:03.262Z,8.80
2018-06-29T20:40:32.114Z,9.50
2018-06-29T20:43:00.272Z,9.60
2018-06-29T20:45:28.469Z,9.10
2018-06-29T20:47:56.613Z,10.00
2018-06-29T20:50:24.773Z,8.40
2018-06-29T20:52:53.013Z,8.80
2018-06-29T20:55:21.196Z,9.37
2018-06-29T20:57:49.641Z,9.20
2018-06-29T21:00:18.312Z,10.57
2018-06-29T21:02:46.873Z,9.30
2018-06-29T21:05:15.475Z,8.47
2018-06-29T21:07:43.884Z,9.47
2018-06-29T21:10:12.088Z,9.13
2018-06-29T21:12:40.293Z,9.20
2018-06-29T21:15:08.547Z,8.70
2018-06-29T21:17:36.729Z,9.10
2018-06-29T21:20:04.859Z,8.93
2018-06-29T21:22:33.788Z,9.07
2018-06-29T21:25:02.278Z,9.97
2018-06-29T21:27:30.528Z,8.60
2018-06-29T21:29:58.690Z,9.70
2018-06-29T21:32:27.198Z,9.23
2018-06-29T21:34:56.392Z,9.70
2018-06-29T21:37:25.878Z,9.20
2018-06-29T21:39:55.729Z,9.40
2018-06-29T21:42:23.950Z,9.23
2018-06-29T21:44:52.249Z,10.40
2018-06-29T21:47:20.400Z,9.77
2018-06-29T21:49:48.567Z,9.50
2018-06-29T21:52:18.546Z,10.47
2018-06-29T21:54:47.882Z,9.37
2018-06-29T21:57:18.099Z,9.47
2018-06-29T21:59:46.330Z,9.50
2018-06-29T22:02:14.587Z,9.70
2018-06-29T22:04:42.804Z,9.07
2018-06-29T22:07:11.035Z,9.10
2018-06-29T22:09:40.295Z,10.03
2018-06-29T22:12:08.476Z,9.67
2018-06-29T22:14:36.602Z,9.93
2018-06-29T22:17:04.881Z,10.27
2018-06-29T22:19:33.141Z,9.73
2018-06-29T22:22:01.329Z,9.57
2018-06-29T22:24:30.328Z,9.47
2018-06-29T22:26:58.520Z,9.67
2018-06-29T22:29:26.757Z,10.00
2018-06-29T22:31:54.909Z,9.70
2018-06-29T22:34:23.085Z,10.17
2018-06-29T22:36:51.533Z,9.80
2018-06-29T22:39:19.665Z,10.30
2018-06-29T22:41:47.806Z,10.37
2018-06-29T22:44:15.748Z,10.10
2018-06-29T22:46:43.866Z,10.30
2018-06-29T22:49:12.099Z,10.10
2018-06-29T22:51:40.210Z,10.87
2018-06-29T22:54:08.354Z,10.50
2018-06-29T22:56:36.474Z,10.70
2018-06-29T22:59:04.710Z,9.13
2018-06-29T23:01:33.141Z,10.57
2018-06-29T23:04:01.273Z,10.50
2018-06-29T23:06:29.399Z,11.30
2018-06-29T23:08:57.538Z,10.00
2018-06-29T23:11:25.800Z,10.50
2018-06-29T23:13:53.998Z,10.40
2018-06-29T23:16:27.936Z,9.73
2018-06-29T23:18:56.094Z,10.60
2018-06-29T23:21:24.225Z,9.73
2018-06-29T23:23:52.377Z,9.33
2018-06-29T23:26:20.514Z,10.17
2018-06-29T23:28:48.654Z,11.83
2018-06-29T23:31:16.790Z,9.90
2018-06-29T23:33:44.929Z,10.33
2018-06-29T23:36:13.071Z,10.57
2018-06-29T23:38:41.201Z,10.27
2018-06-29T23:41:09.353Z,9.70
2018-06-29T23:43:37.491Z,10.20
2018-06-29T23:46:05.633Z,10.60
2018-06-29T23:48:33.776Z,10.20
2018-06-29T23:51:01.909Z,9.60
2018-06-29T23:53:30.061Z,10.23
2018-06-29T23:55:58.194Z,10.47
2018-06-29T23:58:26.306Z,10.80
